DAAT

Details ICAO DAAT (TMR)
Name TAMANRASSET
Region Algeria
Timezone Africa/Algiers (UTC+1.0)
Plans Departing 240
Arriving 273
Stats Elevation 4,518 ft / 1,377 m (AMSL)
Location 22.810400° 5.444400°
Runways 2
Magnetic Variation 0.732° E
Sunrise 2019-06-27 04:56:33 UTC / 2019-06-27 05:56:33 Local
Sunset 2019-06-27 18:28:12 UTC / 2019-06-27 19:28:12 Local
Advertisement - Login to hide

Runways

ID Width Length Bearing (true/mag) Surface Threshold Overrun Markings Lighting
02 148 ft / 45 m 11,884 ft / 3,622 m 22.21° / 21.48° ASPHALT 0 ft / 0 m 0 ft / 0 m APP EDGE THRESHOLD
08 148 ft / 45 m 10,169 ft / 3,099 m 81.74° / 81.01° ASPHALT 0 ft / 0 m 0 ft / 0 m APP
20 148 ft / 45 m 11,884 ft / 3,622 m 202.22° / 201.49° ASPHALT 0 ft / 0 m 0 ft / 0 m APP EDGE THRESHOLD
26 148 ft / 45 m 10,169 ft / 3,099 m 261.75° / 261.02° ASPHALT 0 ft / 0 m 0 ft / 0 m APP

Map

Weather


0- 5 10 15 20 25 30 35+ Temperature / °C

Clouds and Precipitation
Forecast for 2019-06-12 12:00 UTC. Updated 15 days ago

Ground ~20,000 ft ~40,000 ft Winds

METAR

DAAT 262330Z 08013KT 8000 NSC 29/M07 Q1022

TAF

TAF DAAT 261700Z 2618/2718 10018KT CAVOK BECMG 2619/2621 10008KT BECMG 2706/2709 10018KT PROB40 TEMPO 2708/2712 20020G30KT 5000 DRSA PROB30 TEMPO 2714/2718 SCT046TCU

Frequencies

Tower 118.10 MHz
Tower 119.70 MHz
Warning: Do not use this data for real-world aviation or navigation. No guarantee of current accuracy is given.